Date,TemperatureHighF,TemperatureAvgF,TemperatureLowF,DewpointHighF,DewpointAvgF,DewpointLowF,HumidityHigh,HumidityAvg,HumidityLow,PressureMaxIn,PressureMinIn,WindSpeedMaxMPH,WindSpeedAvgMPH,GustSpeedMaxMPH,PrecipitationSumIn
2012-1-1,48,44,37,46,39,32,94,81,69,29.65,29.06,9,2,11,0.08
2012-1-2,42,40,38,37,34,32,88,80,74,29.18,29.00,10,2,12,0.05
2012-1-3,51,41,36,50,36,32,98,83,61,29.32,28.08,27,5,30,0.82
2012-1-4,49,43,38,48,39,32,98,86,61,29.47,28.79,14,4,20,0.59
2012-1-5,46,42,38,39,34,30,88,74,56,29.83,28.88,10,3,15,0.20
2012-1-6,50,42,34,49,39,29,98,87,63,29.85,29.56,12,1,12,0.09
2012-1-7,47,45,43,40,37,35,83,73,66,29.85,29.59,13,4,14,0.00
2012-1-8,51,48,44,50,44,37,98,88,71,29.91,29.80,10,2,10,0.00
2012-1-9,49,46,40,48,40,33,98,83,62,30.09,29.74,6,2,11,0.08
2012-1-10,49,47,45,48,42,36,97,84,72,30.03,29.88,10,2,12,0.00
2012-1-11,52,48,44,48,45,41,97,88,80,30.00,29.77,9,2,17,0.00
2012-1-12,52,45,38,50,37,32,97,75,56,30.18,29.59,14,3,17,0.04
2012-1-13,44,35,30,41,32,28,97,91,75,30.24,30.09,0,0,2,0.04
2012-1-14,41,37,30,40,35,27,97,93,84,30.15,29.94,0,0,3,0.00
2012-1-15,41,32,27,37,30,26,96,90,74,30.03,29.85,1,0,3,0.00
2012-1-16,39,33,27,35,30,25,96,90,81,29.97,29.83,1,0,3,0.00
2012-1-17,48,42,36,46,40,33,96,91,83,29.91,29.68,5,0,6,0.00
2012-1-18,50,46,42,50,41,34,98,84,61,29.77,29.50,10,2,10,0.17
2012-1-19,44,40,36,39,34,31,94,81,71,29.68,29.41,8,2,12,0.16
2012-1-20,50,42,35,49,39,31,98,88,75,29.59,29.38,9,1,12,0.17
2012-1-21,50,44,42,47,36,32,88,73,56,29.47,29.18,13,5,23,0.08
2012-1-22,47,43,39,46,37,33,98,79,67,29.65,29.15,11,3,24,0.00
2012-1-23,47,39,34,37,33,30,94,81,56,29.80,29.59,5,1,9,0.00
2012-1-24,44,38,35,43,38,34,98,96,89,29.77,29.53,1,0,3,0.00
2012-1-25,52,48,38,48,44,36,98,89,72,29.56,29.06,9,2,12,1.00
2012-1-26,39,34,31,38,34,30,98,97,92,29.44,29.12,3,0,4,0.16
2012-1-27,40,34,28,39,34,28,98,97,92,30.03,29.44,4,0,4,0.26
2012-1-28,37,32,26,36,31,26,98,98,97,30.21,30.00,0,0,1,0.00
2012-1-29,41,37,32,38,35,31,98,93,85,30.21,30.03,1,0,3,0.00
2012-1-30,42,35,30,36,29,21,97,80,52,30.09,29.88,6,0,6,0.00
2012-1-31,38,36,32,31,28,23,86,73,56,30.33,30.03,3,0,5,0.00
2012-2-1,46,30,24,32,23,20,89,74,46,30.48,30.27,4,0,4,0.00
2012-2-2,36,28,21,29,23,17,90,81,72,30.45,30.27,0,0,2,0.00
2012-2-3,45,34,30,31,26,23,85,74,52,30.36,30.24,3,0,5,0.00
2012-2-4,42,38,33,42,35,29,98,92,84,30.30,29.71,5,0,6,0.33
2012-2-5,45,38,32,44,38,31,98,97,94,30.15,29.88,0,0,2,0.00
2012-2-6,37,35,30,37,35,30,98,98,97,30.42,30.06,0,0,0,0.00
2012-2-7,44,33,28,40,32,27,98,95,78,30.45,30.30,2,0,4,0.00
2012-2-8,36,34,32,33,29,24,96,80,70,30.45,30.21,3,0,5,0.00
2012-2-9,42,39,34,42,38,31,98,95,86,30.33,30.12,0,0,1,0.04
2012-2-10,41,40,38,40,39,37,98,98,96,30.24,30.12,0,0,1,0.08
2012-2-11,41,39,37,40,38,36,98,98,98,30.30,30.12,1,0,2,0.04
2012-2-12,46,40,33,45,38,30,98,92,74,30.30,30.18,2,0,5,0.00
2012-2-13,52,44,34,43,38,31,96,81,59,30.24,29.91,5,0,6,0.00
2012-2-14,50,46,42,41,38,35,84,73,67,30.15,29.88,8,2,10,0.00
2012-2-15,54,48,42,42,39,35,83,71,55,30.09,29.91,7,2,10,0.00
2012-2-16,52,47,42,50,42,36,96,84,61,30.06,29.80,7,1,11,0.00
2012-2-17,50,46,42,49,42,38,98,86,67,29.88,29.41,9,2,10,0.08
2012-2-18,46,41,34,45,33,22,98,75,47,29.65,29.06,11,2,11,0.33
2012-2-19,46,39,34,33,28,22,83,66,45,30.09,29.65,4,1,6,0.00
2012-2-20,50,45,37,49,43,33,98,94,84,30.03,29.59,10,2,11,0.17
2012-2-21,53,50,48,51,48,46,98,95,85,29.80,29.59,9,2,12,0.08
2012-2-22,54,51,49,53,50,47,98,97,90,29.68,29.29,9,2,12,0.46
2012-2-23,54,52,49,53,50,46,98,94,84,29.80,29.56,6,3,7,0.04
2012-2-24,53,48,42,47,39,31,91,74,45,30.06,29.77,9,2,9,0.00
2012-2-25,50,46,43,47,42,38,98,87,75,30.03,29.83,7,1,10,0.09
2012-2-26,48,47,45,48,46,43,98,96,86,30.00,29.83,4,0,7,0.03
2012-2-27,54,51,48,53,50,48,98,97,91,29.80,29.62,6,1,11,0.05
2012-2-28,54,52,49,53,51,49,98,97,92,29.94,29.74,6,1,10,0.00
2012-2-29,57,50,47,49,46,43,98,87,65,29.88,29.71,4,0,5,0.00
2012-3-1,61,50,47,50,46,43,95,86,58,30.03,29.74,4,0,6,0.04
2012-3-2,55,47,42,51,44,40,98,91,74,30.03,29.80,4,0,4,0.00
2012-3-3,54,45,37,46,40,34,95,85,56,29.80,29.38,7,1,8,0.04
2012-3-4,53,41,33,38,32,26,95,75,40,29.91,29.62,6,1,9,0.08
2012-3-5,56,42,32,40,31,26,96,67,39,30.39,29.83,6,1,8,0.00
2012-3-6,50,41,31,48,37,27,98,84,57,30.03,29.35,7,1,10,0.17
2012-3-7,51,43,37,50,37,27,98,80,48,29.77,29.23,16,2,16,0.25
2012-3-8,50,45,38,46,41,34,92,85,76,29.97,29.74,6,1,7,0.04
2012-3-9,56,50,47,52,45,40,98,85,70,30.12,29.85,9,1,9,0.00
2012-3-10,50,49,47,44,43,40,89,80,73,30.33,30.03,6,2,9,0.00
2012-3-11,53,49,47,47,46,44,95,89,78,30.33,30.24,6,1,8,0.00
2012-3-12,52,49,46,45,43,40,92,81,70,30.30,30.15,4,0,6,0.00
2012-3-13,52,47,44,45,40,38,91,77,62,30.30,30.15,3,0,4,0.00
2012-3-14,52,47,43,42,40,37,86,79,58,30.21,29.94,3,0,11,0.00
2012-3-15,57,46,39,44,40,36,91,79,49,29.97,29.71,4,0,7,0.00
2012-3-16,51,48,44,50,47,43,98,95,85,29.71,29.41,8,1,8,0.50
2012-3-17,56,44,34,48,35,27,98,74,42,29.68,29.47,6,1,8,0.04
2012-3-18,58,41,30,46,32,27,97,72,38,29.97,29.62,4,0,8,0.00
2012-3-19,52,46,38,49,41,33,98,84,65,30.00,29.85,8,2,9,0.04
2012-3-20,57,51,49,52,47,42,98,86,65,30.18,29.91,6,2,10,0.04
2012-3-21,63,51,45,44,40,36,87,68,44,30.27,30.09,7,1,8,0.00
2012-3-22,65,52,43,42,38,37,81,61,37,30.27,30.09,4,0,6,0.00
2012-3-23,59,48,38,46,41,35,95,79,56,30.12,29.94,5,0,6,0.00
2012-3-24,65,51,43,50,45,41,95,81,50,30.15,30.00,4,0,5,0.00
2012-3-25,73,53,40,53,43,39,98,73,34,30.33,30.12,3,0,8,0.00
2012-3-26,76,53,36,51,39,34,94,65,31,30.36,30.24,3,0,4,0.00
2012-3-27,73,43,36,46,33,31,84,72,27,30.36,30.24,3,0,5,0.00
2012-3-28,71,52,36,49,36,31,91,58,28,30.27,30.15,8,1,9,0.00
2012-3-29,63,52,46,44,40,31,83,65,45,30.18,30.03,9,2,13,0.00
2012-3-30,61,51,45,44,41,38,86,71,48,30.03,29.85,12,3,13,0.00
2012-3-31,65,50,41,44,36,30,86,62,35,30.00,29.80,4,1,6,0.00
2012-4-1,58,46,32,42,36,26,87,68,50,29.97,29.68,7,2,10,0.00
2012-4-2,59,48,44,46,42,38,87,78,54,29.68,29.38,5,1,8,0.00
2012-4-3,46,40,36,42,30,21,92,69,45,29.74,29.21,10,2,17,0.13
2012-4-4,53,40,31,28,23,20,68,51,37,30.03,29.74,8,1,8,0.00
2012-4-5,50,40,25,41,30,19,83,70,53,30.06,29.80,5,1,7,0.04
2012-4-6,56,49,45,47,43,40,89,80,69,29.85,29.50,8,1,8,0.00
2012-4-7,58,49,42,48,44,40,96,83,56,29.65,29.59,7,1,8,0.00
2012-4-8,55,49,43,48,44,40,91,83,68,29.62,29.23,8,2,13,0.04
2012-4-9,60,48,41,48,41,35,94,78,46,29.23,28.64,7,1,9,0.20
2012-4-10,56,44,39,46,39,35,97,82,49,28.97,28.53,6,1,15,0.25
2012-4-11,66,47,35,45,37,31,97,71,35,29.32,28.94,7,0,8,0.16
2012-4-12,64,45,36,42,35,29,95,71,35,29.47,29.23,6,0,7,0.00
2012-4-13,65,47,38,39,30,25,77,55,31,29.56,29.41,5,1,7,0.00
2012-4-14,60,45,34,32,26,23,72,50,30,29.83,29.50,6,1,6,0.00
2012-4-15,60,44,31,30,23,18,67,44,27,30.03,29.80,4,1,7,0.00
2012-4-16,59,43,28,38,28,20,84,56,34,30.00,29.38,6,1,6,0.04
2012-4-17,58,46,40,44,38,33,95,73,44,29.35,28.79,9,1,10,0.30
2012-4-18,61,47,40,41,36,32,86,68,41,28.94,28.76,6,1,7,0.00
2012-4-19,62,48,38,43,37,33,86,68,46,29.03,28.88,4,1,6,0.03
2012-4-20,64,49,41,44,38,33,90,68,38,29.09,28.91,10,0,10,0.00
2012-4-21,64,47,40,49,40,35,90,78,43,29.23,29.00,3,0,4,0.17
2012-4-22,64,49,42,47,38,32,92,68,35,29.29,29.18,4,0,6,0.00
2012-4-23,63,47,38,46,36,31,90,67,36,29.29,29.09,5,0,6,0.04
2012-4-24,62,46,38,45,38,33,93,73,44,29.29,29.09,4,0,9,0.04
2012-4-25,52,46,41,45,40,38,91,80,64,29.21,28.88,9,1,10,0.05
2012-4-26,57,49,44,41,37,28,76,64,47,29.44,28.88,8,1,10,0.04
2012-4-27,60,46,33,35,29,24,84,53,33,29.91,29.44,6,1,8,0.16
2012-4-28,59,46,34,42,30,24,93,58,36,30.03,29.88,6,1,9,0.00
2012-4-29,60,46,34,38,31,25,86,60,36,30.03,29.62,6,2,9,0.05
2012-4-30,50,47,42,45,42,38,90,84,80,30.24,29.90,7,1,12,0.06
2012-5-1,60,52,46,46,42,34,86,70,40,30.28,30.20,8,1,14,0.00
2012-5-2,64,52,44,46,43,40,88,73,51,30.29,30.16,7,1,10,0.01
2012-5-3,72,54,43,50,44,40,92,71,40,30.16,29.74,5,1,9,0.00
2012-5-4,57,48,36,45,36,25,94,65,39,29.90,29.77,8,1,12,0.07
2012-5-5,55,43,29,31,27,23,88,57,30,29.93,29.87,5,1,9,0.00
2012-5-6,56,44,34,38,33,28,90,66,36,29.92,29.88,7,1,8,0.00
2012-5-7,51,43,37,42,38,34,94,83,64,29.93,29.59,7,1,10,0.25
2012-5-8,57,48,41,47,41,36,96,79,53,29.62,29.53,9,2,12,0.01
2012-5-9,61,49,39,44,39,34,90,69,38,29.73,29.62,5,1,9,0.00
2012-5-10,47,45,42,43,41,38,91,85,69,29.77,29.62,8,1,11,0.32
2012-5-11,54,46,40,45,39,34,93,79,52,30.45,29.78,10,2,17,0.22
2012-5-12,61,49,39,46,39,34,91,70,49,30.56,30.44,9,3,19,0.00
2012-5-13,50,48,46,46,43,40,93,84,78,30.43,29.68,17,4,24,0.58
2012-5-14,56,48,42,46,41,37,90,76,55,29.77,29.66,12,4,18,0.11
2012-5-15,59,48,41,39,36,30,89,65,36,30.15,29.77,11,2,15,0.01
2012-5-16,56,46,36,42,37,32,87,73,45,30.18,30.08,8,2,12,0.00
2012-5-17,51,48,44,46,44,41,92,86,78,30.08,29.87,5,1,8,0.18
2012-5-18,48,45,43,42,41,38,92,85,76,29.93,29.83,7,2,11,0.09
2012-5-19,58,48,42,44,39,36,84,70,51,29.96,29.91,5,1,11,0.00
2012-5-20,64,50,35,44,39,33,95,69,43,29.96,29.82,5,1,6,0.00
2012-5-21,70,56,47,51,45,37,87,67,41,29.91,29.83,3,1,7,0.00
2012-5-22,77,60,47,58,50,44,91,73,47,30.13,29.91,5,1,8,0.00
2012-5-23,84,66,51,63,54,48,88,67,45,30.28,30.13,7,1,8,0.00
2012-5-24,87,68,50,62,55,48,94,68,36,30.34,30.27,4,0,8,0.00
2012-5-25,78,66,57,59,55,50,91,70,48,30.36,30.26,6,1,11,0.00
2012-5-26,77,66,55,54,48,43,75,55,37,30.33,30.19,10,1,12,0.00
2012-5-27,84,68,55,58,53,46,90,61,37,30.21,30.05,4,1,12,0.00
2012-5-28,84,66,52,59,52,48,93,64,31,30.06,29.94,7,1,8,0.00
2012-5-29,69,59,52,57,52,48,89,78,61,30.03,29.92,4,1,8,0.00
2012-5-30,62,56,52,54,52,49,91,85,73,29.99,29.96,3,0,5,0.02
2012-5-31,68,58,51,57,53,47,95,84,61,30.03,29.92,7,1,10,0.15
2012-6-1,71,59,50,51,47,43,90,68,38,30.09,30.00,5,1,7,0.00
2012-6-2,61,53,47,44,41,35,80,64,44,30.03,29.91,7,1,11,0.00
2012-6-3,60,51,42,43,38,36,83,64,47,29.97,29.85,5,1,10,0.00
2012-6-4,66,54,42,43,40,36,89,60,35,30.01,29.95,10,2,12,0.00
2012-6-5,67,53,44,49,44,37,90,73,37,29.94,29.56,8,0,13,0.02
2012-6-6,66,56,52,58,51,48,91,84,66,29.55,29.37,5,0,7,0.13
2012-6-7,63,55,50,55,52,48,94,88,70,29.42,29.19,8,1,11,0.14
2012-6-8,61,57,53,54,52,49,94,84,74,29.41,29.09,6,1,14,0.10
2012-6-9,72,59,50,55,52,48,95,79,50,29.72,29.42,8,1,11,0.00
2012-6-10,60,55,51,54,51,48,92,89,79,29.72,29.70,4,0,7,0.21
2012-6-11,61,53,48,51,47,44,95,81,61,29.78,29.70,4,0,7,0.26
2012-6-12,63,55,49,48,45,42,86,70,54,29.90,29.78,6,1,9,0.00
2012-6-13,67,56,46,50,45,39,94,68,38,30.00,29.90,3,0,5,0.01
2012-6-14,65,56,50,50,46,43,78,69,54,30.01,29.89,5,1,14,0.00
2012-6-15,53,50,49,48,45,42,91,84,73,29.89,29.53,9,2,12,0.17
2012-6-16,54,51,49,50,48,47,94,91,85,29.59,29.44,6,2,13,0.63
2012-6-17,60,53,45,50,47,41,96,82,59,29.95,29.59,8,2,10,0.06
2012-6-18,68,54,38,48,42,36,96,69,36,29.96,29.91,7,1,10,0.00
2012-6-19,66,58,51,52,48,44,91,70,48,30.01,29.89,7,2,11,0.01
2012-6-20,72,58,47,53,48,45,92,73,41,30.03,29.93,4,0,7,0.00
2012-6-21,57,54,53,54,51,48,94,88,81,29.93,29.46,8,1,10,0.30
2012-6-22,65,58,53,60,55,52,97,90,76,29.52,29.33,5,0,8,1.02
2012-6-23,59,55,53,54,52,50,94,89,79,29.77,29.52,12,3,16,0.20
2012-6-24,69,58,53,55,52,48,96,80,55,29.84,29.67,10,3,18,0.10
2012-6-25,69,59,48,54,50,46,92,72,55,30.03,29.83,8,1,9,0.00
2012-6-26,69,59,49,59,53,46,95,82,53,30.04,29.89,6,1,9,0.37
2012-6-27,63,59,56,61,57,54,96,94,89,29.90,29.78,2,0,3,0.28
2012-6-28,65,60,56,64,58,55,97,92,85,29.78,29.30,8,1,13,0.38
2012-6-29,65,59,56,59,56,54,95,91,74,29.34,29.18,12,2,14,0.57
2012-6-30,65,57,53,55,52,49,96,84,62,29.52,29.34,9,2,14,0.04
2012-7-1,65,57,53,56,51,47,96,80,58,29.76,29.51,9,2,11,0.02
2012-7-2,62,57,52,60,55,49,95,93,88,29.76,29.71,4,0,5,0.35
2012-7-3,67,61,56,61,58,55,97,89,73,29.75,29.68,4,0,7,0.06
2012-7-4,73,64,59,64,60,58,95,88,68,29.75,29.62,4,0,7,0.17
2012-7-5,76,66,59,66,61,58,95,84,67,29.86,29.75,6,1,8,0.00
2012-7-6,74,65,60,63,59,56,92,81,57,29.86,29.80,5,1,13,0.00
2012-7-7,64,60,55,58,56,53,94,87,71,29.82,29.75,6,1,8,0.35
2012-7-8,63,58,54,58,54,52,94,89,78,29.79,29.71,3,0,5,0.01
2012-7-9,62,58,55,58,56,54,96,92,84,29.80,29.75,2,0,3,0.34
2012-7-10,62,56,52,56,52,50,95,89,72,29.80,29.73,2,0,5,0.18
2012-7-11,59,54,51,55,51,49,96,91,82,29.77,29.70,5,1,8,0.57
2012-7-12,69,57,47,55,50,46,97,80,49,29.78,29.68,4,0,7,0.01
2012-7-13,68,57,48,55,50,46,95,78,55,29.68,29.56,4,0,6,0.01
2012-7-14,71,58,51,53,48,43,92,72,43,29.74,29.59,7,1,12,0.01
2012-7-15,64,56,49,53,49,45,90,78,62,29.88,29.72,12,3,17,0.01
2012-7-16,66,57,48,60,52,46,93,84,74,29.96,29.84,7,1,8,0.06
2012-7-17,64,56,48,55,51,45,95,84,66,30.04,29.84,7,1,9,0.12
2012-7-18,60,57,54,58,55,52,96,93,85,29.84,29.58,8,1,14,0.83
2012-7-19,67,57,52,55,51,48,96,82,57,29.89,29.66,6,1,7,0.02
2012-7-20,69,58,49,52,48,44,89,71,48,30.10,29.89,6,1,9,0.00
2012-7-21,64,56,45,53,49,43,96,78,62,30.16,30.09,5,1,8,0.00
2012-7-22,66,61,56,61,56,49,95,86,77,30.13,29.86,8,3,21,0.28
2012-7-23,62,59,55,60,58,54,96,95,94,29.96,29.87,9,2,17,0.75
2012-7-24,70,60,53,60,55,52,98,84,62,30.03,29.94,7,1,11,0.01
2012-7-25,75,63,50,57,53,48,97,73,44,30.10,30.01,5,1,8,0.00
2012-7-26,74,62,53,58,53,48,89,75,49,30.10,29.94,5,1,10,0.00
2012-7-27,66,57,53,55,50,48,87,77,54,29.94,29.74,11,3,17,0.00
2012-7-28,66,57,52,55,52,49,95,82,59,29.74,29.57,11,2,13,0.17
2012-7-29,64,57,51,54,50,48,91,79,63,29.73,29.60,7,2,13,0.01
2012-7-30,64,56,48,54,48,45,93,78,54,29.85,29.73,8,2,15,0.06
2012-7-31,71,58,44,54,47,41,96,72,38,29.85,29.67,6,1,10,0.17
2012-8-1,68,61,55,61,57,53,96,89,70,29.67,29.44,7,1,12,0.23
2012-8-2,73,59,48,58,52,47,97,79,50,29.70,29.54,6,1,11,0.01
2012-8-3,70,59,50,62,55,48,95,86,62,29.76,29.70,3,0,6,0.16
2012-8-4,78,63,54,63,56,52,97,82,44,29.75,29.68,6,0,7,0.40
2012-8-5,66,59,55,60,56,54,96,92,77,29.70,29.61,1,0,3,0.24
2012-8-6,70,60,54,60,56,50,96,86,67,29.80,29.61,5,1,9,0.02
2012-8-7,72,61,47,55,51,45,96,73,51,30.02,29.81,7,2,11,0.00
2012-8-8,69,59,52,52,50,48,87,73,56,30.20,30.14,3,1,6,0.00
2012-8-9,73,59,46,56,50,44,94,75,51,30.29,30.19,6,1,10,0.00
2012-8-10,82,63,47,59,53,45,96,72,42,30.32,30.22,3,0,6,0.00
2012-8-11,74,63,55,58,55,52,91,74,52,30.25,29.99,5,1,8,0.00
2012-8-12,74,64,57,59,56,52,88,76,50,29.99,29.76,5,1,9,0.01
2012-8-13,66,62,59,63,59,57,94,91,86,29.76,29.63,3,0,8,0.33
2012-8-14,72,64,59,65,60,56,95,85,64,29.81,29.66,3,0,6,0.21
2012-8-15,72,62,57,63,58,54,95,87,70,29.81,29.43,9,1,20,0.35
2012-8-16,70,64,57,62,56,54,94,77,63,29.80,29.49,7,2,13,0.09
2012-8-17,71,63,58,65,60,56,96,90,71,29.79,29.60,7,1,10,0.44
2012-8-18,73,66,60,65,60,56,96,83,59,29.91,29.65,6,1,10,0.09
2012-8-19,72,64,54,62,58,53,95,81,63,29.95,29.90,4,0,6,0.02
2012-8-20,74,63,54,62,57,52,97,83,60,29.97,29.91,9,1,12,0.00
2012-8-21,71,62,56,60,56,52,96,84,55,29.97,29.72,6,1,13,0.03
2012-8-22,68,60,55,60,55,53,94,86,65,29.80,29.71,10,2,16,0.17
2012-8-23,69,59,53,56,54,51,95,83,56,29.80,29.67,7,2,11,0.09
2012-8-24,69,59,54,58,55,50,96,85,56,29.67,29.50,3,0,6,0.10
2012-8-25,72,58,54,58,54,52,97,88,54,29.74,29.50,2,0,6,0.63
2012-8-26,61,56,52,55,51,48,96,86,67,29.92,29.74,4,0,7,0.05
2012-8-27,61,57,51,59,55,49,96,92,86,29.87,29.41,8,1,13,0.65
2012-8-28,67,59,53,56,52,50,95,80,56,29.69,29.45,13,3,17,0.01
2012-8-29,70,59,50,58,53,47,94,82,53,29.69,29.54,7,1,14,0.08
2012-8-30,67,56,45,50,44,40,97,67,40,30.30,29.69,6,1,11,0.00
2012-8-31,58,51,40,57,48,38,96,90,74,30.32,30.14,6,1,11,0.08
2012-9-1,67,60,58,59,57,55,95,90,70,30.15,29.89,9,3,15,0.04
2012-9-2,68,60,54,58,55,52,94,83,65,30.20,29.93,9,2,16,0.00
2012-9-3,71,62,58,61,57,54,95,84,63,30.20,29.98,8,2,14,0.04
2012-9-4,66,60,54,60,51,46,95,74,54,30.19,29.98,11,3,19,0.00
2012-9-5,67,57,49,54,49,46,94,78,53,30.34,30.19,7,1,12,0.02
2012-9-6,60,56,46,58,53,44,96,91,79,30.32,29.99,11,3,17,0.04
2012-9-7,65,61,59,61,58,57,96,91,85,30.09,30.00,9,2,11,0.02
2012-9-8,71,62,56,60,58,52,94,85,65,30.08,29.84,8,2,10,0.00
2012-9-9,65,58,51,59,54,48,93,86,73,29.84,29.42,8,1,13,0.07
2012-9-10,60,55,46,58,52,45,96,90,76,29.58,29.43,5,1,8,0.14
2012-9-11,58,50,43,50,46,42,97,87,63,29.75,29.57,10,2,20,0.18
2012-9-12,61,53,44,51,46,40,95,78,53,29.99,29.69,10,2,14,0.03
2012-9-13,60,53,43,56,50,40,94,90,84,30.00,29.51,14,3,21,0.07
2012-9-14,63,56,53,53,49,47,90,79,65,29.86,29.47,13,4,23,0.01
2012-9-15,61,56,52,53,50,47,91,82,72,29.86,29.70,8,2,14,0.01
2012-9-16,60,55,50,56,51,46,95,88,74,29.70,29.54,13,3,18,0.27
2012-9-17,59,52,47,53,48,45,93,87,75,29.61,29.52,11,2,16,0.22
2012-9-18,59,49,44,46,43,41,94,81,55,29.93,29.56,11,2,14,0.03
2012-9-19,60,49,40,51,44,38,97,84,61,30.01,29.93,7,1,13,0.06
2012-9-20,51,48,44,50,47,42,96,94,91,29.98,29.86,3,0,4,0.52
2012-9-21,63,49,39,47,42,38,97,80,44,30.07,29.95,4,0,6,0.00
2012-9-22,61,46,33,45,40,32,97,81,49,30.12,30.02,6,0,7,0.01
2012-9-23,61,50,41,47,42,38,92,76,49,30.02,29.64,6,1,10,0.00
2012-9-24,53,50,47,48,46,43,90,85,78,29.64,29.14,6,2,12,0.08
2012-9-25,59,53,50,51,47,43,90,81,69,29.18,28.91,9,2,15,0.06
2012-9-26,68,55,50,53,49,46,94,80,53,29.58,29.19,5,1,9,0.09
2012-9-27,57,52,45,50,47,42,94,85,69,29.65,29.56,8,1,12,0.02
2012-9-28,60,52,46,51,47,43,94,86,65,29.63,29.52,15,3,18,0.16
2012-9-29,58,52,47,50,46,43,93,81,59,29.89,29.62,12,3,19,0.09
2012-9-30,62,55,51,55,51,48,95,87,63,29.77,29.57,12,3,16,0.42
2012-10-1,57,52,47,51,48,45,95,87,76,29.57,29.45,9,2,15,0.35
2012-10-2,58,51,47,51,47,45,95,88,73,29.50,29.23,7,2,14,0.38
2012-10-3,56,48,44,50,45,42,97,88,69,29.44,29.24,7,2,12,0.09
2012-10-4,57,50,36,50,46,35,97,87,74,29.58,29.51,6,1,10,0.05
2012-10-5,57,50,43,48,44,41,93,82,67,29.67,29.54,6,1,8,0.00
2012-10-6,60,48,40,51,43,37,97,85,62,30.02,29.66,7,1,9,0.00
2012-10-7,60,45,32,45,40,31,97,82,54,30.14,30.01,4,0,7,0.01
2012-10-8,60,46,34,46,41,33,97,84,58,30.09,29.94,6,0,7,0.00
2012-10-9,60,43,33,42,37,31,97,79,44,30.05,29.98,0,0,0,0.00
2012-10-10,58,43,30,46,38,29,97,84,58,29.99,29.70,0,0,0,0.00
2012-10-11,55,51,48,52,49,46,96,93,86,29.70,29.46,0,0,5,0.31
2012-10-12,50,48,47,48,46,42,97,90,80,29.50,29.40,7,2,12,0.26
2012-10-13,54,48,46,45,44,43,95,85,68,29.54,29.48,5,1,12,0.06
2012-10-14,59,48,44,49,45,42,96,90,64,29.62,29.51,1,0,8,0.11
2012-10-15,55,43,33,44,38,32,97,85,57,29.57,29.31,3,0,5,0.00
2012-10-16,50,42,36,45,39,35,96,90,76,29.44,29.20,5,0,6,0.23
2012-10-17,48,43,36,46,42,35,97,95,92,29.44,29.19,5,1,9,0.67
2012-10-18,53,48,43,51,46,42,98,96,91,29.59,29.29,4,0,4,0.24
2012-10-19,51,49,47,49,47,45,97,95,92,29.72,29.60,2,0,6,0.17
2012-10-20,56,50,47,50,48,46,98,93,78,29.97,29.69,3,0,7,0.02
2012-10-21,60,47,43,53,45,42,98,95,78,30.18,29.97,1,0,2,0.00
2012-10-22,54,46,36,49,44,34,98,92,82,30.32,30.17,3,0,6,0.00
2012-10-23,55,52,49,52,49,47,96,92,86,30.35,30.30,2,0,5,0.00
2012-10-24,57,50,42,50,46,40,96,88,70,30.33,30.19,3,0,6,0.01
2012-10-25,57,45,36,46,40,30,96,83,58,30.21,30.11,2,0,7,0.00
2012-10-26,50,39,33,32,29,26,90,71,41,30.22,30.06,4,0,7,0.00
2012-10-27,49,39,29,44,34,26,94,82,57,30.21,29.88,5,1,8,0.01
2012-10-28,49,48,44,47,46,42,97,93,89,29.87,29.48,6,1,12,0.21
2012-10-29,51,43,38,46,40,35,98,89,71,29.73,29.57,6,0,10,0.00
2012-10-30,50,46,41,47,44,39,95,92,87,29.62,28.97,12,2,18,0.15
2012-10-31,48,43,34,46,41,33,96,94,89,28.96,28.73,11,1,18,0.63
2012-11-1,48,40,34,44,38,33,98,92,73,28.73,28.61,7,1,11,0.12
2012-11-2,50,43,34,44,39,32,94,86,71,29.13,28.61,11,2,15,0.07
2012-11-3,46,40,33,42,37,32,97,89,75,29.19,29.11,6,1,11,0.16
2012-11-4,46,39,31,42,36,30,96,92,83,29.58,29.19,2,0,5,0.01
2012-11-5,52,38,30,44,35,29,98,90,68,29.93,29.58,5,0,8,0.00
2012-11-6,54,49,34,50,46,33,96,89,81,30.01,29.85,11,3,16,0.01
2012-11-7,52,50,49,49,47,45,95,90,84,30.01,29.77,13,3,17,0.10
2012-11-8,54,49,47,47,45,43,93,87,72,29.88,29.65,10,2,16,0.03
2012-11-9,50,47,43,48,44,40,96,90,81,29.64,29.26,10,2,16,0.31
2012-11-10,47,43,36,45,41,36,97,93,88,29.43,29.20,5,1,9,0.09
2012-11-11,47,40,34,44,38,33,98,93,80,29.91,29.43,4,0,7,0.00
2012-11-12,55,47,39,53,45,38,98,96,94,29.90,29.76,7,1,9,0.12
2012-11-13,57,54,48,54,51,47,96,92,84,30.03,29.84,13,3,19,0.24
2012-11-14,50,47,38,49,46,37,97,97,95,30.18,30.03,2,0,3,0.16
2012-11-15,50,45,38,50,44,37,98,97,93,30.18,29.89,6,0,12,0.06
2012-11-16,47,46,44,45,43,42,97,92,87,29.89,29.62,6,1,11,0.06
2012-11-17,47,42,38,44,40,36,97,93,80,29.64,29.54,8,1,16,0.08
2012-11-18,49,41,36,44,39,35,97,90,79,29.74,29.54,5,1,9,0.11
2012-11-19,55,51,43,52,49,41,98,91,84,29.54,29.22,16,5,22,1.17
2012-11-20,55,51,47,53,47,41,94,87,69,29.51,29.26,13,3,21,0.09
2012-11-21,49,45,41,45,42,39,93,88,80,29.64,29.51,5,1,9,0.00
2012-11-22,52,47,43,48,44,41,94,90,85,29.53,29.20,12,2,18,0.96
2012-11-23,48,43,37,43,39,35,95,88,79,29.79,29.25,9,2,13,0.14
2012-11-24,39,36,32,37,35,32,97,95,92,29.89,29.59,2,0,6,0.01
2012-11-25,44,39,32,42,37,31,97,95,93,29.59,29.44,4,0,5,0.16
2012-11-26,45,39,33,40,36,32,98,90,79,29.80,29.58,4,0,6,0.01
2012-11-27,50,40,34,40,35,32,95,83,65,30.05,29.80,3,0,7,0.00
2012-11-28,43,34,29,36,31,27,96,88,72,30.09,30.04,5,0,7,0.00
2012-11-29,36,30,25,33,28,24,97,94,85,30.05,29.80,1,0,2,0.01
2012-11-30,36,32,27,35,31,26,97,95,90,29.85,29.78,1,0,2,0.14
2012-12-1,41,34,29,38,32,27,97,93,79,29.96,29.81,6,0,8,0.02
2012-12-2,36,32,26,34,30,25,97,94,90,29.95,29.68,3,0,6,0.01
2012-12-3,40,36,34,38,35,32,98,96,93,29.68,29.42,5,0,7,0.38
2012-12-4,36,34,30,35,32,29,98,95,88,29.70,29.43,5,0,7,0.02
2012-12-5,41,31,24,33,27,22,95,86,66,29.95,29.70,2,0,6,0.01
2012-12-6,40,36,24,39,34,23,96,94,88,29.91,29.21,9,2,15,0.48
2012-12-7,44,39,32,38,34,30,95,86,71,30.07,29.32,9,1,13,0.02
2012-12-8,49,41,30,47,39,29,98,94,86,30.13,29.92,11,1,16,0.02
2012-12-9,48,43,33,44,37,31,94,81,71,30.14,29.86,14,4,21,0.02
2012-12-10,43,33,26,34,29,25,94,86,67,30.43,30.14,2,0,4,0.00
2012-12-11,31,26,21,29,24,20,97,95,92,30.44,30.21,0,0,2,0.00
2012-12-12,33,30,26,32,29,24,97,96,94,30.20,29.77,1,0,2,0.00
2012-12-13,36,34,31,33,31,24,97,91,75,29.77,29.40,2,0,5,0.01
2012-12-14,42,37,31,41,34,24,96,88,73,29.40,28.61,10,1,10,0.20
2012-12-15,47,44,38,44,42,37,97,94,89,29.14,28.64,6,1,10,0.06
2012-12-16,48,45,42,44,42,40,94,91,86,29.27,29.14,3,1,7,0.00
2012-12-17,44,42,41,42,40,39,96,94,92,29.68,29.23,3,0,8,0.02
2012-12-18,45,42,40,43,40,39,97,94,90,30.05,29.72,2,0,4,0.00
2012-12-19,45,43,42,41,39,38,94,87,77,30.01,29.75,7,2,12,0.28
2012-12-20,43,42,40,40,40,39,95,93,90,29.76,29.49,8,2,11,0.72
2012-12-21,42,41,41,41,40,39,96,95,95,29.81,29.55,5,0,8,0.17
2012-12-22,45,43,41,44,42,39,97,96,93,29.75,29.12,5,1,8,0.60
2012-12-23,52,47,45,50,45,43,98,92,85,29.39,28.86,16,4,26,0.46
2012-12-24,47,44,40,45,43,39,97,94,90,29.40,29.11,5,1,10,0.16
2012-12-25,44,42,39,43,40,38,98,94,86,29.27,29.06,7,1,11,0.09
2012-12-26,43,40,36,42,38,34,98,95,90,29.40,29.23,8,1,13,0.31
2012-12-27,40,38,35,36,35,33,96,90,79,29.86,29.26,5,1,9,0.05
2012-12-28,54,49,37,51,46,36,97,92,85,29.82,29.15,21,5,29,0.44
2012-12-29,54,46,41,50,42,36,90,84,78,29.17,29.10,13,3,19,0.07
2012-12-30,50,42,37,49,39,35,98,92,83,29.32,29.16,11,3,18,0.52
2012-12-31,51,45,37,48,42,35,95,90,82,29.25,28.92,14,4,23,0.34
2013-1-1,46,41,37,41,38,35,95,90,83,29.88,29.25,11,2,20,0.17